メインページ
METAR-TAF:

METAR-TAF

空港 :

ベルリン, ニューハンプシャー州, アメリカ合衆国

緯度: 44-34-34N, 経度: 071-10-43W, 海抜: 353m

現時点の気象観測

当レポートは21分前の17:52(UTC)に作成
無風
気温 29°C
湿度 40%
気圧 1021 hPa
視程: 16.1km
高度6000ftの雲は散在している

METAR: KBML 261752Z AUTO 00000KT 10SM SCT060 29/14 A3014 RMK AO2 SLP204 T02890139 10294 20144 58013

時間: 14:13 (18:13 UTC)


TAF: 見つかりません

4,000以上の空港の気象観測と天気予報(METAR報とTAF報)

利用可能な観測所は地図上に黄色い丸と赤い丸で示す。

丸の上にカーソルを重ねると観測所名を参照できる。

次にクリックすると気象観測と天気予報を参照できる。

マップの切り替え:黒色「×」印の緑ボタンをクリックして拡大、「-」印の緑ボタンをクリックして縮小、緑色の三角印をクリックして隣りの地図に切り替え


METAR-TAF: